sensor_id;sensor_type;location;lat;lon;timestamp;pressure;altitude;pressure_sealevel;temperature;humidity
46303;BME280;32029;51.358;5.628;2024-01-15T00:02:04;100154.44;;;3.03;100.00
46303;BME280;32029;51.358;5.628;2024-01-15T00:04:39;100127.09;;;2.96;100.00
46303;BME280;32029;51.358;5.628;2024-01-15T00:07:07;100110.28;;;2.92;100.00
46303;BME280;32029;51.358;5.628;2024-01-15T00:09:34;100137.00;;;3.05;100.00
46303;BME280;32029;51.358;5.628;2024-01-15T00:12:02;100130.75;;;3.05;100.00
46303;BME280;32029;51.358;5.628;2024-01-15T00:14:29;100128.47;;;3.00;100.00
46303;BME280;32029;51.358;5.628;2024-01-15T00:16:56;100134.13;;;3.07;100.00
46303;BME280;32029;51.358;5.628;2024-01-15T00:19:24;100127.56;;;3.09;100.00
46303;BME280;32029;51.358;5.628;2024-01-15T00:21:51;100113.78;;;3.03;100.00
46303;BME280;32029;51.358;5.628;2024-01-15T00:24:19;100124.53;;;3.12;100.00
46303;BME280;32029;51.358;5.628;2024-01-15T00:26:47;100106.56;;;3.11;100.00
46303;BME280;32029;51.358;5.628;2024-01-15T00:29:14;100114.91;;;3.18;100.00
46303;BME280;32029;51.358;5.628;2024-01-15T00:31:41;100109.50;;;3.18;100.00
46303;BME280;32029;51.358;5.628;2024-01-15T00:34:09;100100.03;;;3.22;100.00
46303;BME280;32029;51.358;5.628;2024-01-15T00:36:35;100104.97;;;3.27;100.00
46303;BME280;32029;51.358;5.628;2024-01-15T00:39:02;100084.72;;;3.13;100.00
46303;BME280;32029;51.358;5.628;2024-01-15T00:41:31;100102.59;;;3.24;100.00
46303;BME280;32029;51.358;5.628;2024-01-15T00:43:58;100102.06;;;3.20;100.00
46303;BME280;32029;51.358;5.628;2024-01-15T00:46:25;100078.84;;;3.00;100.00
46303;BME280;32029;51.358;5.628;2024-01-15T00:48:52;100096.56;;;3.12;100.00
46303;BME280;32029;51.358;5.628;2024-01-15T00:51:19;100099.59;;;3.09;100.00
46303;BME280;32029;51.358;5.628;2024-01-15T00:53:46;100092.78;;;3.05;100.00
46303;BME280;32029;51.358;5.628;2024-01-15T00:56:12;100095.16;;;3.08;100.00
46303;BME280;32029;51.358;5.628;2024-01-15T00:58:39;100084.66;;;3.05;100.00
46303;BME280;32029;51.358;5.628;2024-01-15T01:01:06;100069.50;;;2.94;100.00
46303;BME280;32029;51.358;5.628;2024-01-15T01:03:33;100083.09;;;3.02;100.00
46303;BME280;32029;51.358;5.628;2024-01-15T01:06:00;100072.50;;;2.91;100.00
46303;BME280;32029;51.358;5.628;2024-01-15T01:08:27;100081.06;;;3.04;100.00
46303;BME280;32029;51.358;5.628;2024-01-15T01:10:55;100076.53;;;3.05;100.00
46303;BME280;32029;51.358;5.628;2024-01-15T01:13:22;100053.06;;;2.95;100.00
46303;BME280;32029;51.358;5.628;2024-01-15T01:15:49;100067.69;;;3.03;100.00
46303;BME280;32029;51.358;5.628;2024-01-15T01:18:16;100067.00;;;3.01;100.00
46303;BME280;32029;51.358;5.628;2024-01-15T01:20:43;100084.25;;;3.00;100.00
46303;BME280;32029;51.358;5.628;2024-01-15T01:23:09;100073.22;;;2.93;100.00
46303;BME280;32029;51.358;5.628;2024-01-15T01:25:36;100070.56;;;3.01;100.00
46303;BME280;32029;51.358;5.628;2024-01-15T01:28:03;100083.59;;;2.98;100.00
46303;BME280;32029;51.358;5.628;2024-01-15T01:30:30;100077.44;;;2.95;100.00
46303;BME280;32029;51.358;5.628;2024-01-15T01:32:57;100069.19;;;2.97;100.00
46303;BME280;32029;51.358;5.628;2024-01-15T01:35:24;100066.06;;;2.92;100.00
46303;BME280;32029;51.358;5.628;2024-01-15T01:37:52;100067.69;;;3.03;100.00
46303;BME280;32029;51.358;5.628;2024-01-15T01:40:19;100063.91;;;2.95;100.00
46303;BME280;32029;51.358;5.628;2024-01-15T01:42:46;100074.81;;;3.04;100.00
46303;BME280;32029;51.358;5.628;2024-01-15T01:45:13;100072.09;;;3.04;100.00
46303;BME280;32029;51.358;5.628;2024-01-15T01:47:40;100077.06;;;3.08;100.00
46303;BME280;32029;51.358;5.628;2024-01-15T01:50:07;100061.19;;;3.13;100.00
46303;BME280;32029;51.358;5.628;2024-01-15T01:52:35;100068.78;;;3.10;100.00
46303;BME280;32029;51.358;5.628;2024-01-15T01:55:02;100071.47;;;3.10;100.00
46303;BME280;32029;51.358;5.628;2024-01-15T01:57:31;100079.31;;;3.13;100.00
46303;BME280;32029;51.358;5.628;2024-01-15T02:00:00;100080.16;;;3.13;100.00
46303;BME280;32029;51.358;5.628;2024-01-15T02:02:28;100079.31;;;3.13;100.00
46303;BME280;32029;51.358;5.628;2024-01-15T02:04:55;100061.66;;;3.09;100.00
46303;BME280;32029;51.358;5.628;2024-01-15T02:07:22;100077.81;;;3.18;100.00
46303;BME280;32029;51.358;5.628;2024-01-15T02:09:49;100073.56;;;3.16;100.00
46303;BME280;32029;51.358;5.628;2024-01-15T02:12:16;100062.63;;;3.08;100.00
46303;BME280;32029;51.358;5.628;2024-01-15T02:14:43;100065.34;;;3.08;100.00
46303;BME280;32029;51.358;5.628;2024-01-15T02:17:10;100078.06;;;3.07;100.00
46303;BME280;32029;51.358;5.628;2024-01-15T02:19:37;100065.69;;;3.05;100.00
46303;BME280;32029;51.358;5.628;2024-01-15T02:22:08;100072.56;;;2.99;100.00
46303;BME280;32029;51.358;5.628;2024-01-15T02:24:34;100067.25;;;2.89;100.00
46303;BME280;32029;51.358;5.628;2024-01-15T02:27:02;100073.03;;;2.94;100.00
46303;BME280;32029;51.358;5.628;2024-01-15T02:29:28;100060.50;;;2.93;100.00
46303;BME280;32029;51.358;5.628;2024-01-15T02:31:55;100065.03;;;2.85;100.00
46303;BME280;32029;51.358;5.628;2024-01-15T02:34:24;100069.25;;;2.87;100.00
46303;BME280;32029;51.358;5.628;2024-01-15T02:36:52;100062.13;;;2.86;100.00
46303;BME280;32029;51.358;5.628;2024-01-15T02:39:18;100058.41;;;2.87;100.00
46303;BME280;32029;51.358;5.628;2024-01-15T02:41:46;100061.06;;;2.79;100.00
46303;BME280;32029;51.358;5.628;2024-01-15T02:44:12;100059.19;;;2.80;100.00
46303;BME280;32029;51.358;5.628;2024-01-15T02:46:39;100068.88;;;2.82;100.00
46303;BME280;32029;51.358;5.628;2024-01-15T02:49:06;100057.66;;;2.77;100.00
46303;BME280;32029;51.358;5.628;2024-01-15T02:51:33;100058.50;;;2.78;100.00
46303;BME280;32029;51.358;5.628;2024-01-15T02:53:59;100063.47;;;2.82;100.00
46303;BME280;32029;51.358;5.628;2024-01-15T02:56:27;100066.47;;;2.79;100.00
46303;BME280;32029;51.358;5.628;2024-01-15T02:58:53;100060.38;;;2.77;100.00
46303;BME280;32029;51.358;5.628;2024-01-15T03:01:20;100059.00;;;2.73;100.00
46303;BME280;32029;51.358;5.628;2024-01-15T03:03:47;100069.13;;;2.71;100.00
46303;BME280;32029;51.358;5.628;2024-01-15T03:06:13;100068.56;;;2.67;100.00
46303;BME280;32029;51.358;5.628;2024-01-15T03:08:39;100052.06;;;2.61;100.00
46303;BME280;32029;51.358;5.628;2024-01-15T03:11:05;100068.03;;;2.64;100.00
46303;BME280;32029;51.358;5.628;2024-01-15T03:13:35;100054.41;;;2.56;100.00
46303;BME280;32029;51.358;5.628;2024-01-15T03:16:04;100068.88;;;2.64;100.00
46303;BME280;32029;51.358;5.628;2024-01-15T03:18:33;100068.88;;;2.64;100.00
46303;BME280;32029;51.358;5.628;2024-01-15T03:21:00;100059.06;;;2.63;100.00
46303;BME280;32029;51.358;5.628;2024-01-15T03:23:29;100051.88;;;2.54;100.00
46303;BME280;32029;51.358;5.628;2024-01-15T03:25:55;100060.91;;;2.63;100.00
46303;BME280;32029;51.358;5.628;2024-01-15T03:28:23;100058.03;;;2.64;100.00
46303;BME280;32029;51.358;5.628;2024-01-15T03:30:51;100067.97;;;2.74;100.00
46303;BME280;32029;51.358;5.628;2024-01-15T03:33:20;100067.03;;;2.83;100.00
46303;BME280;32029;51.358;5.628;2024-01-15T03:35:49;100067.88;;;2.83;100.00
46303;BME280;32029;51.358;5.628;2024-01-15T03:38:16;100072.34;;;2.92;100.00
46303;BME280;32029;51.358;5.628;2024-01-15T03:40:45;100073.41;;;3.00;100.00
46303;BME280;32029;51.358;5.628;2024-01-15T03:43:12;100053.91;;;2.96;100.00
46303;BME280;32029;51.358;5.628;2024-01-15T03:45:39;100036.97;;;2.94;100.00
46303;BME280;32029;51.358;5.628;2024-01-15T03:48:06;100048.41;;;3.06;100.00
46303;BME280;32029;51.358;5.628;2024-01-15T03:50:34;100047.16;;;3.00;100.00
46303;BME280;32029;51.358;5.628;2024-01-15T03:53:01;100039.75;;;3.02;100.00
46303;BME280;32029;51.358;5.628;2024-01-15T03:55:29;100032.69;;;3.09;100.00
46303;BME280;32029;51.358;5.628;2024-01-15T03:57:55;100038.25;;;3.08;100.00
46303;BME280;32029;51.358;5.628;2024-01-15T04:00:22;100036.41;;;3.08;100.00
46303;BME280;32029;51.358;5.628;2024-01-15T04:02:48;100017.22;;;3.02;100.00
46303;BME280;32029;51.358;5.628;2024-01-15T04:05:15;100025.22;;;3.11;100.00
46303;BME280;32029;51.358;5.628;2024-01-15T04:07:43;100038.16;;;3.17;100.00
46303;BME280;32029;51.358;5.628;2024-01-15T04:10:09;100024.78;;;3.16;100.00
46303;BME280;32029;51.358;5.628;2024-01-15T04:12:36;100009.19;;;3.18;100.00
46303;BME280;32029;51.358;5.628;2024-01-15T04:15:03;100015.31;;;3.20;100.00
46303;BME280;32029;51.358;5.628;2024-01-15T04:17:30;100012.91;;;3.17;100.00
46303;BME280;32029;51.358;5.628;2024-01-15T04:19:57;100020.19;;;3.16;100.00
46303;BME280;32029;51.358;5.628;2024-01-15T04:22:25;100015.94;;;3.14;100.00
46303;BME280;32029;51.358;5.628;2024-01-15T04:24:52;100009.13;;;3.10;100.00
46303;BME280;32029;51.358;5.628;2024-01-15T04:27:18;100022.13;;;3.24;100.00
46303;BME280;32029;51.358;5.628;2024-01-15T04:29:45;100015.69;;;3.25;100.00
46303;BME280;32029;51.358;5.628;2024-01-15T04:32:12;100019.44;;;3.32;100.00
46303;BME280;32029;51.358;5.628;2024-01-15T04:34:39;100017.41;;;3.34;100.00
46303;BME280;32029;51.358;5.628;2024-01-15T04:37:05;100016.56;;;3.34;100.00
46303;BME280;32029;51.358;5.628;2024-01-15T04:39:32;99998.69;;;3.23;100.00
46303;BME280;32029;51.358;5.628;2024-01-15T04:41:59;99993.63;;;3.20;100.00
46303;BME280;32029;51.358;5.628;2024-01-15T04:44:25;100009.13;;;3.10;100.00
46303;BME280;32029;51.358;5.628;2024-01-15T04:46:52;99989.88;;;2.95;100.00
46303;BME280;32029;51.358;5.628;2024-01-15T04:49:19;100004.66;;;3.01;100.00
46303;BME280;32029;51.358;5.628;2024-01-15T04:51:45;100000.25;;;3.00;100.00
46303;BME280;32029;51.358;5.628;2024-01-15T04:54:12;99985.00;;;2.99;100.00
46303;BME280;32029;51.358;5.628;2024-01-15T04:56:39;99984.69;;;3.02;100.00
46303;BME280;32029;51.358;5.628;2024-01-15T04:59:05;99979.03;;;2.95;100.00
46303;BME280;32029;51.358;5.628;2024-01-15T05:01:32;99978.72;;;2.98;100.00
46303;BME280;32029;51.358;5.628;2024-01-15T05:03:59;99987.69;;;2.99;100.00
46303;BME280;32029;51.358;5.628;2024-01-15T05:06:26;99989.78;;;3.05;100.00
46303;BME280;32029;51.358;5.628;2024-01-15T05:08:53;99989.78;;;3.05;100.00
46303;BME280;32029;51.358;5.628;2024-01-15T05:11:20;100009.31;;;3.08;100.00
46303;BME280;32029;51.358;5.628;2024-01-15T05:13:46;99992.34;;;3.06;100.00
46303;BME280;32029;51.358;5.628;2024-01-15T05:16:13;99978.91;;;2.97;100.00
46303;BME280;32029;51.358;5.628;2024-01-15T05:18:40;100012.50;;;3.12;100.00
46303;BME280;32029;51.358;5.628;2024-01-15T05:21:06;100000.38;;;3.16;100.00
46303;BME280;32029;51.358;5.628;2024-01-15T05:23:34;99999.34;;;3.17;100.00
46303;BME280;32029;51.358;5.628;2024-01-15T05:26:01;99991.22;;;3.17;100.00
46303;BME280;32029;51.358;5.628;2024-01-15T05:28:28;99979.66;;;3.15;100.00
46303;BME280;32029;51.358;5.628;2024-01-15T05:30:54;99981.91;;;3.19;100.00
46303;BME280;32029;51.358;5.628;2024-01-15T05:33:23;99961.00;;;3.12;100.00
46303;BME280;32029;51.358;5.628;2024-01-15T05:35:50;99970.75;;;3.23;100.00
46303;BME280;32029;51.358;5.628;2024-01-15T05:38:17;99974.97;;;3.17;100.00
46303;BME280;32029;51.358;5.628;2024-01-15T05:40:44;99968.50;;;3.18;100.00
46303;BME280;32029;51.358;5.628;2024-01-15T05:43:10;99951.50;;;3.08;100.00
46303;BME280;32029;51.358;5.628;2024-01-15T05:45:38;99962.56;;;3.14;100.00
46303;BME280;32029;51.358;5.628;2024-01-15T05:48:05;99956.59;;;3.11;100.00
46303;BME280;32029;51.358;5.628;2024-01-15T05:50:33;99964.25;;;3.15;100.00
46303;BME280;32029;51.358;5.628;2024-01-15T05:53:00;99969.88;;;3.22;100.00
46303;BME280;32029;51.358;5.628;2024-01-15T05:55:26;99963.00;;;3.28;100.00
46303;BME280;32029;51.358;5.628;2024-01-15T05:57:54;99960.63;;;3.33;100.00
46303;BME280;32029;51.358;5.628;2024-01-15T06:00:22;99962.53;;;3.40;100.00
46303;BME280;32029;51.358;5.628;2024-01-15T06:02:49;99960.50;;;3.42;100.00
46303;BME280;32029;51.358;5.628;2024-01-15T06:05:16;99955.91;;;3.43;100.00
46303;BME280;32029;51.358;5.628;2024-01-15T06:07:44;99955.44;;;3.39;100.00
46303;BME280;32029;51.358;5.628;2024-01-15T06:10:12;99965.25;;;3.40;100.00
46303;BME280;32029;51.358;5.628;2024-01-15T06:12:40;99947.94;;;3.33;100.00
46303;BME280;32029;51.358;5.628;2024-01-15T06:15:08;99953.88;;;3.37;100.00
46303;BME280;32029;51.358;5.628;2024-01-15T06:17:36;99954.72;;;3.37;100.00
46303;BME280;32029;51.358;5.628;2024-01-15T06:20:05;99952.19;;;3.36;100.00
46303;BME280;32029;51.358;5.628;2024-01-15T06:22:33;99956.91;;;3.34;100.00
46303;BME280;32029;51.358;5.628;2024-01-15T06:25:02;99945.22;;;3.33;100.00
46303;BME280;32029;51.358;5.628;2024-01-15T06:27:30;99948.94;;;3.32;100.00
46303;BME280;32029;51.358;5.628;2024-01-15T06:29:57;99944.50;;;3.31;100.00
46303;BME280;32029;51.358;5.628;2024-01-15T06:32:25;99947.56;;;3.28;100.00
46303;BME280;32029;51.358;5.628;2024-01-15T06:34:51;99946.56;;;3.29;100.00
46303;BME280;32029;51.358;5.628;2024-01-15T06:37:20;99935.66;;;3.21;100.00
46303;BME280;32029;51.358;5.628;2024-01-15T06:39:47;99946.34;;;3.23;100.00
46303;BME280;32029;51.358;5.628;2024-01-15T06:42:14;99952.94;;;3.20;100.00
46303;BME280;32029;51.358;5.628;2024-01-15T06:44:41;99936.97;;;3.09;100.00
46303;BME280;32029;51.358;5.628;2024-01-15T06:47:07;99946.72;;;3.02;100.00
46303;BME280;32029;51.358;5.628;2024-01-15T06:49:36;99929.00;;;2.81;100.00
46303;BME280;32029;51.358;5.628;2024-01-15T06:52:03;99945.94;;;2.83;100.00
46303;BME280;32029;51.358;5.628;2024-01-15T06:54:30;99936.13;;;2.64;100.00
46303;BME280;32029;51.358;5.628;2024-01-15T06:56:57;99935.81;;;2.67;100.00
46303;BME280;32029;51.358;5.628;2024-01-15T06:59:23;99920.66;;;2.57;100.00
46303;BME280;32029;51.358;5.628;2024-01-15T07:01:50;99941.56;;;2.64;100.00
46303;BME280;32029;51.358;5.628;2024-01-15T07:04:17;99941.72;;;2.63;100.00
46303;BME280;32029;51.358;5.628;2024-01-15T07:06:44;99920.38;;;2.60;100.00
46303;BME280;32029;51.358;5.628;2024-01-15T07:09:11;99922.09;;;2.69;100.00
46303;BME280;32029;51.358;5.628;2024-01-15T07:11:37;99934.72;;;2.78;100.00
46303;BME280;32029;51.358;5.628;2024-01-15T07:14:04;99923.03;;;2.78;100.00
46303;BME280;32029;51.358;5.628;2024-01-15T07:16:31;99932.38;;;2.83;100.00
46303;BME280;32029;51.358;5.628;2024-01-15T07:18:57;99926.97;;;2.83;100.00
46303;BME280;32029;51.358;5.628;2024-01-15T07:21:24;99916.78;;;2.77;100.00
46303;BME280;32029;51.358;5.628;2024-01-15T07:23:51;99939.50;;;2.84;100.00
46303;BME280;32029;51.358;5.628;2024-01-15T07:26:17;99920.81;;;2.73;100.00
46303;BME280;32029;51.358;5.628;2024-01-15T07:28:44;99925.34;;;2.73;100.00
46303;BME280;32029;51.358;5.628;2024-01-15T07:31:11;99937.44;;;2.78;100.00
46303;BME280;32029;51.358;5.628;2024-01-15T07:33:37;99931.78;;;2.72;100.00
46303;BME280;32029;51.358;5.628;2024-01-15T07:36:04;99944.38;;;2.81;100.00
46303;BME280;32029;51.358;5.628;2024-01-15T07:38:31;99935.75;;;2.77;100.00
46303;BME280;32029;51.358;5.628;2024-01-15T07:40:58;99935.25;;;2.82;100.00
46303;BME280;32029;51.358;5.628;2024-01-15T07:43:25;99946.63;;;2.85;100.00
46303;BME280;32029;51.358;5.628;2024-01-15T07:45:51;99953.09;;;2.92;100.00
46303;BME280;32029;51.358;5.628;2024-01-15T07:48:18;99940.16;;;2.78;100.00
46303;BME280;32029;51.358;5.628;2024-01-15T07:50:45;99957.78;;;2.82;100.00
46303;BME280;32029;51.358;5.628;2024-01-15T07:53:12;99945.88;;;2.75;100.00
46303;BME280;32029;51.358;5.628;2024-01-15T07:55:38;99959.13;;;2.78;100.00
46303;BME280;32029;51.358;5.628;2024-01-15T07:58:05;99941.41;;;2.66;100.00
46303;BME280;32029;51.358;5.628;2024-01-15T08:00:32;99952.97;;;2.76;100.00
46303;BME280;32029;51.358;5.628;2024-01-15T08:02:59;99957.78;;;2.82;100.00
46303;BME280;32029;51.358;5.628;2024-01-15T08:05:25;99963.03;;;2.84;100.00
46303;BME280;32029;51.358;5.628;2024-01-15T08:07:52;99947.25;;;2.79;100.00
46303;BME280;32029;51.358;5.628;2024-01-15T08:10:19;99967.28;;;2.86;100.00
46303;BME280;32029;51.358;5.628;2024-01-15T08:12:45;99976.81;;;2.90;100.00
46303;BME280;32029;51.358;5.628;2024-01-15T08:15:12;99967.34;;;2.94;100.00
46303;BME280;32029;51.358;5.628;2024-01-15T08:17:39;99974.78;;;2.92;100.00
46303;BME280;32029;51.358;5.628;2024-01-15T08:20:06;99966.19;;;2.97;100.00
46303;BME280;32029;51.358;5.628;2024-01-15T08:22:33;99955.88;;;3.01;100.00
46303;BME280;32029;51.358;5.628;2024-01-15T08:24:59;99953.19;;;3.01;100.00
46303;BME280;32029;51.358;5.628;2024-01-15T08:27:26;99969.00;;;3.13;100.00
46303;BME280;32029;51.358;5.628;2024-01-15T08:29:53;99955.88;;;3.01;100.00
46303;BME280;32029;51.358;5.628;2024-01-15T08:32:19;99956.38;;;3.04;100.00
46303;BME280;32029;51.358;5.628;2024-01-15T08:34:46;99975.75;;;3.09;100.00
46303;BME280;32029;51.358;5.628;2024-01-15T08:37:15;99972.38;;;3.15;100.00
46303;BME280;32029;51.358;5.628;2024-01-15T08:39:42;99975.44;;;3.12;100.00
46303;BME280;32029;51.358;5.628;2024-01-15T08:42:09;99981.91;;;3.19;100.00
46303;BME280;32029;51.358;5.628;2024-01-15T08:44:37;99971.72;;;3.13;100.00
46303;BME280;32029;51.358;5.628;2024-01-15T08:47:05;99961.97;;;3.03;100.00
46303;BME280;32029;51.358;5.628;2024-01-15T08:49:32;99988.88;;;3.22;100.00
46303;BME280;32029;51.358;5.628;2024-01-15T08:51:59;99986.47;;;3.19;100.00
46303;BME280;32029;51.358;5.628;2024-01-15T08:54:26;99981.75;;;3.21;100.00
46303;BME280;32029;51.358;5.628;2024-01-15T08:56:53;99993.28;;;3.23;100.00
46303;BME280;32029;51.358;5.628;2024-01-15T08:59:19;99998.69;;;3.23;100.00
46303;BME280;32029;51.358;5.628;2024-01-15T09:01:53;99994.47;;;3.21;100.00
46303;BME280;32029;51.358;5.628;2024-01-15T09:04:20;99989.78;;;3.05;100.00
46303;BME280;32029;51.358;5.628;2024-01-15T09:06:47;100004.03;;;3.07;100.00
46303;BME280;32029;51.358;5.628;2024-01-15T09:09:14;100004.97;;;2.98;100.00
46303;BME280;32029;51.358;5.628;2024-01-15T09:11:41;99973.03;;;2.83;100.00
46303;BME280;32029;51.358;5.628;2024-01-15T09:14:08;99980.13;;;2.84;100.00
46303;BME280;32029;51.358;5.628;2024-01-15T09:16:35;100001.44;;;2.97;100.00
46303;BME280;32029;51.358;5.628;2024-01-15T09:19:02;99986.69;;;3.00;100.00
46303;BME280;32029;51.358;5.628;2024-01-15T09:21:30;100001.03;;;2.92;100.00
46303;BME280;32029;51.358;5.628;2024-01-15T09:23:56;99997.53;;;3.00;100.00
46303;BME280;32029;51.358;5.628;2024-01-15T09:26:23;99998.72;;;2.97;100.00
46303;BME280;32029;51.358;5.628;2024-01-15T09:28:50;100018.38;;;2.99;100.00
46303;BME280;32029;51.358;5.628;2024-01-15T09:31:17;100016.44;;;2.91;100.00
46303;BME280;32029;51.358;5.628;2024-01-15T09:33:44;99985.91;;;2.81;100.00
46303;BME280;32029;51.358;5.628;2024-01-15T09:36:10;100010.34;;;2.89;100.00
46303;BME280;32029;51.358;5.628;2024-01-15T09:38:37;100014.13;;;2.97;100.00
46303;BME280;32029;51.358;5.628;2024-01-15T09:41:04;99994.94;;;2.90;100.00
46303;BME280;32029;51.358;5.628;2024-01-15T09:43:30;99996.16;;;2.95;100.00
46303;BME280;32029;51.358;5.628;2024-01-15T09:45:57;99985.31;;;2.95;100.00
46303;BME280;32029;51.358;5.628;2024-01-15T09:48:24;99976.59;;;2.84;100.00
46303;BME280;32029;51.358;5.628;2024-01-15T09:50:52;100016.91;;;2.87;100.00
46303;BME280;32029;51.358;5.628;2024-01-15T09:53:19;100015.44;;;2.92;100.00
46303;BME280;32029;51.358;5.628;2024-01-15T09:55:47;100001.13;;;2.82;100.00
46303;BME280;32029;51.358;5.628;2024-01-15T09:58:16;100003.53;;;2.85;100.00
46303;BME280;32029;51.358;5.628;2024-01-15T10:00:44;100021.91;;;3.00;100.00
46303;BME280;32029;51.358;5.628;2024-01-15T10:03:11;100026.19;;;3.02;100.00
46303;BME280;32029;51.358;5.628;2024-01-15T10:05:38;100015.19;;;3.04;100.00
46303;BME280;32029;51.358;5.628;2024-01-15T10:08:06;100028.06;;;3.02;100.00
46303;BME280;32029;51.358;5.628;2024-01-15T10:10:36;100016.03;;;3.04;100.00
46303;BME280;32029;51.358;5.628;2024-01-15T10:13:04;99994.44;;;2.94;100.00
46303;BME280;32029;51.358;5.628;2024-01-15T10:15:34;100002.81;;;3.01;100.00
46303;BME280;32029;51.358;5.628;2024-01-15T10:18:03;100018.81;;;3.12;100.00
46303;BME280;32029;51.358;5.628;2024-01-15T10:20:32;100005.09;;;3.14;100.00
46303;BME280;32029;51.358;5.628;2024-01-15T10:22:59;99996.72;;;3.07;100.00
46303;BME280;32029;51.358;5.628;2024-01-15T10:25:26;100005.94;;;3.14;100.00
46303;BME280;32029;51.358;5.628;2024-01-15T10:28:03;99991.19;;;3.09;100.00
46303;BME280;32029;51.358;5.628;2024-01-15T10:30:32;99997.97;;;3.13;100.00
46303;BME280;32029;51.358;5.628;2024-01-15T10:33:00;99994.66;;;3.27;100.00
46303;BME280;32029;51.358;5.628;2024-01-15T10:35:32;99977.97;;;3.40;100.00
46303;BME280;32029;51.358;5.628;2024-01-15T10:37:59;99995.56;;;3.70;100.00
46303;BME280;32029;51.358;5.628;2024-01-15T10:40:27;100001.56;;;3.90;100.00
46303;BME280;32029;51.358;5.628;2024-01-15T10:42:54;99996.34;;;3.97;100.00
46303;BME280;32029;51.358;5.628;2024-01-15T10:45:22;100013.34;;;4.07;100.00
46303;BME280;32029;51.358;5.628;2024-01-15T10:47:49;100005.25;;;4.23;100.00
46303;BME280;32029;51.358;5.628;2024-01-15T10:50:16;100010.03;;;4.37;100.00
46303;BME280;32029;51.358;5.628;2024-01-15T10:52:43;100007.66;;;4.42;100.00
46303;BME280;32029;51.358;5.628;2024-01-15T10:55:10;100006.63;;;4.52;100.00
46303;BME280;32029;51.358;5.628;2024-01-15T10:57:37;100003.25;;;4.66;100.00
46303;BME280;32029;51.358;5.628;2024-01-15T11:00:05;100001.19;;;4.68;100.00
46303;BME280;32029;51.358;5.628;2024-01-15T11:02:35;99996.13;;;4.65;100.00
46303;BME280;32029;51.358;5.628;2024-01-15T11:05:04;100005.78;;;4.67;100.00
46303;BME280;32029;51.358;5.628;2024-01-15T11:07:31;99992.53;;;4.56;100.00
46303;BME280;32029;51.358;5.628;2024-01-15T11:09:59;100001.72;;;4.55;100.00
46303;BME280;32029;51.358;5.628;2024-01-15T11:12:31;100007.84;;;4.49;100.00
46303;BME280;32029;51.358;5.628;2024-01-15T11:15:03;100000.03;;;4.46;100.00
46303;BME280;32029;51.358;5.628;2024-01-15T11:17:58;100000.69;;;4.48;100.00
46303;BME280;32029;51.358;5.628;2024-01-15T11:20:27;100000.16;;;4.45;100.00
46303;BME280;32029;51.358;5.628;2024-01-15T11:22:54;99988.63;;;4.34;100.00
46303;BME280;32029;51.358;5.628;2024-01-15T11:25:34;100014.75;;;4.35;100.00
46303;BME280;32029;51.358;5.628;2024-01-15T11:28:01;99994.88;;;4.18;100.00
46303;BME280;32029;51.358;5.628;2024-01-15T11:30:28;100008.25;;;4.12;100.00
46303;BME280;32029;51.358;5.628;2024-01-15T11:32:55;100017.94;;;4.14;100.00
46303;BME280;32029;51.358;5.628;2024-01-15T11:35:22;100025.94;;;4.32;100.00
46303;BME280;32029;51.358;5.628;2024-01-15T11:40:42;100021.94;;;4.69;100.00
46303;BME280;32029;51.358;5.628;2024-01-15T11:43:09;100002.41;;;4.74;100.00
46303;BME280;32029;51.358;5.628;2024-01-15T11:45:36;99996.47;;;4.86;100.00
46303;BME280;32029;51.358;5.628;2024-01-15T11:48:14;100013.44;;;5.05;100.00
46303;BME280;32029;51.358;5.628;2024-01-15T11:50:43;100024.13;;;5.14;100.00
46303;BME280;32029;51.358;5.628;2024-01-15T11:53:17;100025.50;;;5.02;100.00
46303;BME280;32029;51.358;5.628;2024-01-15T11:55:47;100036.06;;;4.89;100.00
46303;BME280;32029;51.358;5.628;2024-01-15T11:58:15;100034.19;;;4.65;100.00
46303;BME280;32029;51.358;5.628;2024-01-15T12:00:48;100022.94;;;4.43;100.00
46303;BME280;32029;51.358;5.628;2024-01-15T12:03:16;100024.97;;;4.33;100.00
46303;BME280;32029;51.358;5.628;2024-01-15T12:05:43;100003.53;;;4.14;100.00
46303;BME280;32029;51.358;5.628;2024-01-15T12:08:09;100015.03;;;4.08;100.00
46303;BME280;32029;51.358;5.628;2024-01-15T12:10:42;100027.41;;;3.94;100.00
46303;BME280;32029;51.358;5.628;2024-01-15T12:13:13;100037.03;;;3.88;100.00
46303;BME280;32029;51.358;5.628;2024-01-15T12:15:42;100037.34;;;3.85;100.00
46303;BME280;32029;51.358;5.628;2024-01-15T12:18:11;100020.66;;;3.72;100.00
46303;BME280;32029;51.358;5.628;2024-01-15T12:20:39;100042.25;;;3.82;100.00
46303;BME280;32029;51.358;5.628;2024-01-15T12:23:06;100024.59;;;3.78;100.00
46303;BME280;32029;51.358;5.628;2024-01-15T12:25:33;100036.69;;;3.91;100.00
46303;BME280;32029;51.358;5.628;2024-01-15T12:28:01;99991.69;;;3.81;100.00
46303;BME280;32029;51.358;5.628;2024-01-15T12:30:29;100027.59;;;4.09;100.00
46303;BME280;32029;51.358;5.628;2024-01-15T12:32:58;100026.91;;;4.07;100.00
46303;BME280;32029;51.358;5.628;2024-01-15T12:35:25;100026.91;;;3.99;100.00
46303;BME280;32029;51.358;5.628;2024-01-15T12:37:56;100029.75;;;3.97;100.00
46303;BME280;32029;51.358;5.628;2024-01-15T12:40:23;100044.69;;;4.01;100.00
46303;BME280;32029;51.358;5.628;2024-01-15T12:42:51;100037.25;;;4.03;100.00
46303;BME280;32029;51.358;5.628;2024-01-15T12:45:18;100040.63;;;3.97;100.00
46303;BME280;32029;51.358;5.628;2024-01-15T12:47:46;100036.38;;;3.95;100.00
46303;BME280;32029;51.358;5.628;2024-01-15T12:50:13;100043.50;;;3.96;100.00
46303;BME280;32029;51.358;5.628;2024-01-15T12:52:41;100052.00;;;4.01;100.00
46303;BME280;32029;51.358;5.628;2024-01-15T12:55:09;100039.94;;;3.95;100.00
46303;BME280;32029;51.358;5.628;2024-01-15T12:57:36;100028.78;;;4.06;100.00
46303;BME280;32029;51.358;5.628;2024-01-15T13:00:05;100050.75;;;4.29;100.00